Time;durP1;ratioP1;P1;durP2;ratioP2;P2;SDS_P1;SDS_P2;PMS_P1;PMS_P2;Temp;Humidity;BMP_temperature;BMP_pressure;BME280_temperature;BME280_humidity;BME280_pressure;Samples;Min_cycle;Max_cycle;Signal;HPM_P1;HPM_P2
2021/06/25 00:01:49;;;;;;;17.55;9.80;;;;;;;25.03;43.98;101717.28;5032428;28;20064;-61
2021/06/25 00:04:14;;;;;;;20.30;10.07;;;;;;;25.00;43.64;101713.06;5031427;28;20026;-61
2021/06/25 00:06:40;;;;;;;14.48;10.30;;;;;;;24.97;44.30;101707.13;5031863;28;20374;-61
2021/06/25 00:09:05;;;;;;;19.17;10.30;;;;;;;24.94;43.53;101713.00;5033278;28;20037;-61
2021/06/25 00:11:30;;;;;;;16.85;9.65;;;;;;;24.90;44.47;101698.88;5033774;28;20034;-60
2021/06/25 00:13:56;;;;;;;21.33;9.27;;;;;;;24.86;44.21;101708.53;5033394;28;20036;-61
2021/06/25 00:16:22;;;;;;;14.65;10.48;;;;;;;24.82;43.69;101699.00;5032071;28;20021;-61
2021/06/25 00:18:47;;;;;;;17.48;9.65;;;;;;;24.76;43.41;101706.09;5033469;28;20035;-61
2021/06/25 00:21:13;;;;;;;15.77;9.20;;;;;;;24.73;43.79;101701.06;5033639;28;20477;-61
2021/06/25 00:23:38;;;;;;;17.88;9.57;;;;;;;24.65;43.88;101697.63;5050020;28;20060;-61
2021/06/25 00:26:04;;;;;;;24.80;10.73;;;;;;;24.63;44.28;101697.81;5035468;28;20045;-61
2021/06/25 00:28:29;;;;;;;16.15;9.38;;;;;;;24.57;44.08;101690.38;5053105;28;20025;-61
2021/06/25 00:30:55;;;;;;;17.63;9.95;;;;;;;24.55;43.57;101692.47;5053253;28;20111;-61
2021/06/25 00:33:20;;;;;;;17.50;8.18;;;;;;;24.48;44.27;101686.13;5053498;28;20049;-61
2021/06/25 00:35:46;;;;;;;17.50;9.98;;;;;;;24.46;44.21;101684.59;5052908;28;20074;-61
2021/06/25 00:38:11;;;;;;;15.23;8.63;;;;;;;24.43;44.43;101688.56;5053170;28;20406;-61
2021/06/25 00:40:37;;;;;;;14.38;9.07;;;;;;;24.34;44.52;101682.38;5053176;28;20029;-62
2021/06/25 00:43:03;;;;;;;23.40;9.95;;;;;;;24.33;44.12;101693.56;5035441;28;20029;-61
2021/06/25 00:45:28;;;;;;;17.48;9.73;;;;;;;24.24;44.74;101678.31;5056316;28;20036;-62
2021/06/25 00:47:54;;;;;;;18.60;10.18;;;;;;;24.23;44.49;101693.06;5056292;28;20029;-61
2021/06/25 00:50:21;;;;;;;13.18;8.77;;;;;;;24.17;44.92;101688.38;5038821;28;20020;-61
2021/06/25 00:53:05;;;;;;;17.88;9.93;;;;;;;24.10;44.17;101688.31;5057072;28;20504;-61
2021/06/25 00:55:42;;;;;;;18.17;9.63;;;;;;;24.03;43.89;101681.91;5056678;28;20104;-61
2021/06/25 00:58:15;;;;;;;16.48;9.63;;;;;;;23.97;43.94;101690.03;5056976;28;20032;-61
2021/06/25 01:00:42;;;;;;;22.90;9.73;;;;;;;23.90;45.04;101694.59;5056396;28;20521;-61
2021/06/25 01:03:07;;;;;;;16.52;10.80;;;;;;;23.83;45.11;101690.94;5038487;28;20035;-61
2021/06/25 01:05:32;;;;;;;19.50;10.15;;;;;;;23.77;44.41;101692.56;5056783;28;20029;-61
2021/06/25 01:07:58;;;;;;;16.33;10.05;;;;;;;23.71;45.13;101693.34;5038804;28;20048;-62
2021/06/25 01:10:24;;;;;;;14.93;9.82;;;;;;;23.67;44.34;101701.06;5038689;28;20104;-60
2021/06/25 01:12:50;;;;;;;16.25;10.30;;;;;;;23.64;45.25;101701.50;5038641;28;20424;-61
2021/06/25 01:15:15;;;;;;;15.98;10.77;;;;;;;23.59;45.31;101690.25;5056402;28;20029;-61
2021/06/25 01:17:43;;;;;;;20.15;10.63;;;;;;;23.56;44.36;101695.28;5056338;28;20501;-62
2021/06/25 01:20:13;;;;;;;20.15;10.77;;;;;;;23.52;44.72;101689.34;5056054;28;20477;-61
2021/06/25 01:22:40;;;;;;;17.52;10.18;;;;;;;23.45;44.44;101691.13;5055928;28;20140;-62
2021/06/25 01:25:15;;;;;;;16.92;9.70;;;;;;;23.41;44.82;101692.56;5056142;28;20103;-61
2021/06/25 01:27:41;;;;;;;18.35;9.13;;;;;;;23.29;45.10;101688.59;5056113;28;20029;-60
2021/06/25 01:30:11;;;;;;;19.95;10.63;;;;;;;23.25;45.61;101692.78;5038019;28;20477;-61
2021/06/25 01:32:37;;;;;;;20.00;11.30;;;;;;;23.18;45.29;101686.34;5056008;28;20386;-61
2021/06/25 01:35:03;;;;;;;22.25;11.80;;;;;;;23.14;44.83;101691.34;5038559;28;20025;-61
2021/06/25 01:37:30;;;;;;;21.27;12.18;;;;;;;23.10;45.76;101690.03;5021261;28;20053;-61
2021/06/25 01:39:55;;;;;;;22.48;12.38;;;;;;;23.07;45.77;101684.09;5038275;28;20377;-61
2021/06/25 01:42:21;;;;;;;20.05;11.40;;;;;;;23.01;45.46;101677.50;5055877;28;20032;-61
2021/06/25 01:44:47;;;;;;;23.95;13.23;;;;;;;22.96;45.85;101676.38;5037856;28;20028;-61
2021/06/25 01:47:15;;;;;;;24.65;12.65;;;;;;;22.98;46.10;101675.16;5038369;28;20055;-61
2021/06/25 01:49:40;;;;;;;21.77;12.55;;;;;;;22.98;45.29;101682.50;5056089;28;20090;-61
2021/06/25 01:52:06;;;;;;;28.92;14.75;;;;;;;22.97;45.25;101668.00;5056032;28;20533;-61
2021/06/25 01:54:31;;;;;;;25.17;14.85;;;;;;;22.95;46.05;101666.47;5054087;28;20035;-61
2021/06/25 01:56:57;;;;;;;23.67;13.25;;;;;;;22.94;45.62;101670.25;5037083;28;20074;-60
2021/06/25 01:59:22;;;;;;;26.75;14.30;;;;;;;22.94;45.18;101670.25;5037738;28;20053;-61
2021/06/25 02:01:48;;;;;;;23.55;13.52;;;;;;;22.93;45.17;101671.28;5055240;28;20037;-61
2021/06/25 02:04:13;;;;;;;21.80;12.75;;;;;;;22.91;45.21;101667.91;5055184;28;20025;-61
2021/06/25 02:06:38;;;;;;;20.77;12.48;;;;;;;22.88;46.14;101665.56;5055226;28;20029;-61
2021/06/25 02:09:04;;;;;;;23.00;11.68;;;;;;;22.84;45.87;101662.34;5055372;28;20068;-61
2021/06/25 02:11:29;;;;;;;22.52;12.15;;;;;;;22.82;45.20;101660.84;5055374;28;20029;-61
2021/06/25 02:13:55;;;;;;;26.88;13.48;;;;;;;22.77;45.38;101658.69;5055271;28;20210;-61
2021/06/25 02:16:20;;;;;;;23.30;13.95;;;;;;;22.72;46.10;101652.09;5055270;28;20025;-62
2021/06/25 02:18:46;;;;;;;22.45;13.45;;;;;;;22.68;46.08;101653.47;5037150;28;20031;-61
2021/06/25 02:21:11;;;;;;;23.58;11.75;;;;;;;22.64;46.15;101660.38;5054909;28;20032;-61
2021/06/25 02:23:37;;;;;;;21.75;11.75;;;;;;;22.54;45.38;101647.81;5054608;28;20099;-61
2021/06/25 02:26:03;;;;;;;17.55;11.05;;;;;;;22.47;45.67;101654.22;5037056;28;20029;-61
2021/06/25 02:28:28;;;;;;;21.17;11.00;;;;;;;22.39;44.95;101646.91;5055265;28;20105;-61
2021/06/25 02:30:57;;;;;;;20.42;11.02;;;;;;;22.32;45.43;101650.59;5036971;28;20064;-60
2021/06/25 02:33:23;;;;;;;22.88;12.75;;;;;;;22.22;45.43;101637.19;5054996;28;20040;-60
2021/06/25 02:35:49;;;;;;;20.95;11.27;;;;;;;22.15;45.53;101638.97;5055208;28;20093;-61
2021/06/25 02:38:14;;;;;;;20.60;11.77;;;;;;;22.11;45.83;101636.81;5053381;28;20032;-60
2021/06/25 02:40:40;;;;;;;26.05;11.40;;;;;;;22.05;46.36;101638.41;5054542;28;20388;-61
2021/06/25 02:43:05;;;;;;;18.15;11.10;;;;;;;22.01;45.41;101637.91;5036709;28;20493;-61
2021/06/25 02:45:31;;;;;;;19.60;11.77;;;;;;;21.96;46.15;101637.63;5054733;28;20051;-61
2021/06/25 02:47:56;;;;;;;18.45;11.75;;;;;;;21.91;45.72;101641.94;5054682;28;20037;-60
2021/06/25 02:50:22;;;;;;;25.65;11.52;;;;;;;21.84;46.11;101640.91;5036746;28;20036;-60
2021/06/25 02:52:47;;;;;;;22.80;11.43;;;;;;;21.82;45.85;101640.25;5054682;28;20675;-60
2021/06/25 02:55:13;;;;;;;19.42;10.98;;;;;;;21.74;45.53;101629.41;5054916;28;20035;-60
2021/06/25 02:57:38;;;;;;;27.08;11.38;;;;;;;21.76;45.61;101643.72;5036708;28;20405;-60
2021/06/25 03:00:05;;;;;;;21.85;12.20;;;;;;;21.74;46.65;101648.50;5036834;28;20033;-61
2021/06/25 03:02:31;;;;;;;30.25;12.30;;;;;;;21.67;45.88;101639.34;5036607;28;20029;-61
2021/06/25 03:04:56;;;;;;;23.52;12.32;;;;;;;21.68;45.67;101647.34;5054629;28;20029;-61
2021/06/25 03:07:21;;;;;;;23.70;11.70;;;;;;;21.61;46.11;101634.63;5054681;28;20500;-60
2021/06/25 03:09:47;;;;;;;19.58;11.48;;;;;;;21.62;46.39;101639.03;5054602;28;20037;-62
2021/06/25 03:12:12;;;;;;;18.90;10.65;;;;;;;21.61;45.98;101631.91;5053086;28;20028;-60
2021/06/25 03:14:39;;;;;;;17.67;10.82;;;;;;;21.55;46.27;101632.63;5054647;28;20039;-60
2021/06/25 03:17:05;;;;;;;19.52;11.93;;;;;;;21.53;45.60;101637.38;5054544;28;20021;-61
2021/06/25 03:19:30;;;;;;;19.42;10.82;;;;;;;21.50;45.87;101637.78;5036310;28;20496;-61
2021/06/25 03:21:55;;;;;;;22.55;11.48;;;;;;;21.45;45.73;101624.66;5054059;28;20382;-61
2021/06/25 03:24:21;;;;;;;19.08;10.13;;;;;;;21.42;45.97;101631.34;5054409;28;20029;-60
2021/06/25 03:26:46;;;;;;;18.52;12.05;;;;;;;21.37;46.09;101628.31;5054439;28;20021;-60
2021/06/25 03:29:11;;;;;;;20.92;12.70;;;;;;;21.34;45.95;101623.22;5019874;28;20029;-61
2021/06/25 03:31:37;;;;;;;21.42;12.02;;;;;;;21.29;46.26;101620.19;5053529;28;20033;-61
2021/06/25 03:34:02;;;;;;;25.75;13.73;;;;;;;21.27;46.09;101621.38;5036302;28;20078;-60
2021/06/25 03:36:27;;;;;;;30.80;13.95;;;;;;;21.26;45.94;101620.53;5036656;28;20024;-61
2021/06/25 03:38:53;;;;;;;27.20;14.40;;;;;;;21.27;46.30;101622.22;5054376;28;20033;-61
2021/06/25 03:41:18;;;;;;;28.55;14.88;;;;;;;21.29;46.58;101617.47;5054465;28;20036;-61
2021/06/25 03:43:44;;;;;;;30.13;15.73;;;;;;;21.32;46.38;101618.97;5054076;28;20116;-60
2021/06/25 03:46:09;;;;;;;31.23;15.60;;;;;;;21.34;46.91;101622.34;5054179;28;20412;-61
2021/06/25 03:48:35;;;;;;;30.88;16.67;;;;;;;21.37;47.10;101622.00;5054350;28;20508;-61
2021/06/25 03:51:00;;;;;;;29.30;15.65;;;;;;;21.39;46.80;101615.34;5054500;28;20020;-60
2021/06/25 03:53:25;;;;;;;32.33;16.25;;;;;;;21.44;46.92;101614.78;5054508;28;20082;-60
2021/06/25 03:56:10;;;;;;;29.33;15.07;;;;;;;21.47;47.23;101618.00;5054459;28;20128;-60
2021/06/25 03:58:36;;;;;;;37.92;16.33;;;;;;;21.52;47.12;101619.34;5053865;28;20020;-60
2021/06/25 04:01:01;;;;;;;30.35;15.95;;;;;;;21.55;46.98;101617.13;5054112;28;20351;-60
2021/06/25 04:03:26;;;;;;;32.95;17.70;;;;;;;21.59;47.02;101621.16;5053811;28;20386;-61
2021/06/25 04:05:52;;;;;;;31.80;16.67;;;;;;;21.64;46.93;101628.78;5053473;28;20481;-61
2021/06/25 04:08:18;;;;;;;29.52;15.68;;;;;;;21.68;46.78;101619.22;5053497;28;20029;-60
2021/06/25 04:10:44;;;;;;;35.92;17.70;;;;;;;21.72;46.94;101620.56;5053842;28;20021;-60
2021/06/25 04:13:09;;;;;;;37.15;17.02;;;;;;;21.78;47.06;101619.81;5036015;28;20153;-60
2021/06/25 04:15:35;;;;;;;32.67;17.50;;;;;;;21.83;46.73;101611.97;5035578;28;20032;-61
2021/06/25 04:18:00;;;;;;;30.02;16.88;;;;;;;21.91;47.21;101611.91;5035827;28;20029;-60
2021/06/25 04:20:26;;;;;;;36.28;17.25;;;;;;;21.99;47.75;101614.56;5057051;28;20105;-61
2021/06/25 04:22:51;;;;;;;33.95;17.35;;;;;;;22.06;47.01;101612.78;5057288;28;20391;-60
2021/06/25 04:25:17;;;;;;;36.72;17.83;;;;;;;22.13;46.85;101616.50;5056994;28;20021;-60
2021/06/25 04:27:42;;;;;;;34.65;17.27;;;;;;;22.20;47.51;101614.69;5022563;28;20029;-61
2021/06/25 04:30:09;;;;;;;34.75;18.95;;;;;;;22.30;47.33;101620.75;5057063;28;20041;-61
2021/06/25 04:32:35;;;;;;;36.60;17.88;;;;;;;22.39;47.14;101603.25;5055740;28;20048;-60
2021/06/25 04:35:00;;;;;;;34.30;18.60;;;;;;;22.50;47.33;101607.41;5056843;28;20063;-61
2021/06/25 04:37:25;;;;;;;36.45;17.73;;;;;;;22.58;47.46;101610.88;5057159;28;20041;-61
2021/06/25 04:39:51;;;;;;;37.88;18.70;;;;;;;22.70;47.24;101615.94;5056729;28;20466;-60
2021/06/25 04:42:16;;;;;;;36.95;18.27;;;;;;;22.78;47.59;101610.34;5057017;28;20381;-60
2021/06/25 04:44:42;;;;;;;41.25;20.60;;;;;;;22.83;46.90;101607.91;5038910;28;20025;-60
2021/06/25 04:47:07;;;;;;;34.28;18.58;;;;;;;22.87;47.41;101618.25;5056966;28;20364;-61
2021/06/25 04:49:40;;;;;;;36.35;18.25;;;;;;;22.90;46.88;101611.53;5056998;28;20084;-61
2021/06/25 04:52:06;;;;;;;33.20;19.52;;;;;;;22.92;46.80;101614.97;5056835;28;20059;-60
2021/06/25 04:54:32;;;;;;;36.78;21.60;;;;;;;22.96;46.96;101610.78;5038738;28;20103;-60
2021/06/25 04:56:57;;;;;;;34.55;18.63;;;;;;;22.98;47.59;101608.72;5056497;28;20480;-61
2021/06/25 04:59:23;;;;;;;31.73;18.13;;;;;;;23.03;46.74;101607.09;5056361;28;20179;-60
2021/06/25 05:01:48;;;;;;;36.65;18.75;;;;;;;23.07;47.52;101600.22;5056615;28;20032;-60
2021/06/25 05:04:13;;;;;;;36.53;18.73;;;;;;;23.15;46.81;101600.09;5057070;28;20497;-61
2021/06/25 05:06:39;;;;;;;36.83;21.08;;;;;;;23.26;46.78;101596.00;5056373;28;20033;-61
2021/06/25 05:09:04;;;;;;;38.35;19.20;;;;;;;23.36;46.79;101588.38;5056453;28;20420;-60
2021/06/25 05:11:30;;;;;;;33.88;20.30;;;;;;;23.43;47.09;101586.56;5056201;28;20025;-61
2021/06/25 05:13:55;;;;;;;35.80;19.42;;;;;;;23.51;47.04;101591.91;5056846;28;20028;-61
2021/06/25 05:16:20;;;;;;;37.42;18.52;;;;;;;23.58;47.00;101598.31;5056440;28;20053;-60
2021/06/25 05:18:46;;;;;;;35.25;18.67;;;;;;;23.66;47.18;101592.69;5054724;28;20469;-60
2021/06/25 05:21:11;;;;;;;32.83;18.38;;;;;;;23.73;47.12;101582.66;5056219;28;20037;-60
2021/06/25 05:23:37;;;;;;;32.05;16.33;;;;;;;23.80;46.46;101576.38;5055748;28;20103;-61
2021/06/25 05:26:02;;;;;;;30.05;16.88;;;;;;;23.88;46.72;101582.56;5056067;28;20104;-60
2021/06/25 05:28:28;;;;;;;30.52;16.17;;;;;;;23.96;46.29;101576.09;5056191;28;20049;-61
2021/06/25 05:30:54;;;;;;;32.13;16.75;;;;;;;24.04;46.70;101584.16;5055161;28;20071;-60
2021/06/25 05:33:19;;;;;;;32.90;15.88;;;;;;;24.09;46.70;101589.91;5038358;28;20041;-60
2021/06/25 05:35:45;;;;;;;26.77;15.25;;;;;;;24.11;46.04;101579.63;5038244;28;20088;-61
2021/06/25 05:38:14;;;;;;;32.55;15.23;;;;;;;24.14;45.63;101584.72;5055900;28;20044;-61
2021/06/25 05:40:41;;;;;;;27.85;15.60;;;;;;;24.24;45.25;101572.34;5055610;28;20031;-60
2021/06/25 05:43:07;;;;;;;28.85;14.20;;;;;;;24.33;45.19;101578.53;5036394;28;20080;-60
2021/06/25 05:45:34;;;;;;;43.05;15.45;;;;;;;24.40;45.55;101576.66;5018412;28;20030;-60
2021/06/25 05:47:59;;;;;;;26.60;13.77;;;;;;;24.50;44.99;101588.13;5054788;28;20025;-60
2021/06/25 05:50:25;;;;;;;24.27;13.82;;;;;;;24.61;45.07;101582.06;5055679;28;20083;-61
2021/06/25 05:52:50;;;;;;;23.08;13.13;;;;;;;24.72;44.69;101584.25;5055396;28;20051;-60
2021/06/25 05:55:16;;;;;;;26.95;13.18;;;;;;;24.76;44.35;101596.47;5055583;28;20044;-60
2021/06/25 05:57:43;;;;;;;21.85;12.90;;;;;;;24.82;44.03;101595.69;5037369;28;20167;-61
2021/06/25 06:00:09;;;;;;;23.80;12.80;;;;;;;24.91;43.82;101601.84;5055545;28;20422;-60
2021/06/25 06:02:34;;;;;;;27.00;14.93;;;;;;;25.02;43.65;101606.75;5055441;28;20382;-61
2021/06/25 06:05:00;;;;;;;22.52;13.02;;;;;;;25.04;43.87;101598.34;5055634;28;20036;-60
2021/06/25 06:07:26;;;;;;;22.45;12.65;;;;;;;25.07;43.81;101598.75;5055311;28;20025;-60
2021/06/25 06:09:52;;;;;;;24.63;13.35;;;;;;;25.16;43.58;101603.00;5037312;28;20028;-60
2021/06/25 06:12:18;;;;;;;20.42;12.13;;;;;;;25.23;43.71;101605.78;5037429;28;20028;-60
2021/06/25 06:14:44;;;;;;;23.52;13.80;;;;;;;25.36;43.06;101595.69;5055180;28;20029;-60
2021/06/25 06:17:09;;;;;;;24.70;12.75;;;;;;;25.52;42.86;101596.41;5054866;28;20028;-60
2021/06/25 06:19:43;;;;;;;23.90;12.43;;;;;;;25.63;42.86;101591.13;5055508;28;20052;-60
2021/06/25 06:33:22;;;;;;;20.58;11.05;;;;;;;26.56;41.21;101584.56;5054827;28;20040;-60
2021/06/25 06:35:49;;;;;;;19.50;11.48;;;;;;;26.79;40.88;101579.44;5022448;28;20533;-60
2021/06/25 06:38:14;;;;;;;20.20;10.80;;;;;;;27.02;40.89;101579.78;5037135;28;20031;-60
2021/06/25 06:40:40;;;;;;;16.17;10.95;;;;;;;27.13;40.49;101576.34;5037190;28;20381;-61
2021/06/25 06:43:05;;;;;;;17.05;10.82;;;;;;;27.37;39.99;101579.34;5054371;28;20041;-60
2021/06/25 06:45:31;;;;;;;16.02;10.27;;;;;;;27.61;39.85;101559.34;5054540;28;20025;-60
2021/06/25 06:47:56;;;;;;;14.18;10.13;;;;;;;27.75;39.86;101580.19;5054510;28;20021;-59
2021/06/25 06:50:22;;;;;;;17.52;10.07;;;;;;;27.63;38.86;101570.97;5054710;28;20060;-60
2021/06/25 06:52:49;;;;;;;17.25;9.80;;;;;;;27.55;39.80;101579.50;5054518;28;20112;-60
2021/06/25 06:55:16;;;;;;;17.45;9.63;;;;;;;27.46;38.70;101576.16;5054143;28;20033;-61
2021/06/25 06:57:42;;;;;;;13.27;8.85;;;;;;;27.41;38.74;101588.91;5054416;28;20381;-60
2021/06/25 07:00:09;;;;;;;18.63;8.68;;;;;;;27.39;39.44;101585.47;5053143;28;20043;-61
2021/06/25 07:02:38;;;;;;;16.02;9.60;;;;;;;27.38;38.79;101578.31;5054305;28;20436;-60
2021/06/25 07:05:05;;;;;;;21.33;9.73;;;;;;;27.40;39.36;101581.66;5054323;28;20395;-60
2021/06/25 07:07:31;;;;;;;15.73;9.57;;;;;;;27.42;39.22;101585.06;5053834;28;20087;-61
2021/06/25 07:09:56;;;;;;;15.00;8.77;;;;;;;27.43;38.51;101575.75;5054469;28;20466;-61
2021/06/25 07:12:22;;;;;;;15.15;8.48;;;;;;;27.42;38.75;101577.66;5053235;28;20037;-60
2021/06/25 07:14:48;;;;;;;13.18;8.55;;;;;;;27.30;38.59;101570.31;5036406;28;20029;-60
2021/06/25 07:17:13;;;;;;;11.80;7.38;;;;;;;27.35;37.67;101578.75;5054042;28;20028;-61
2021/06/25 07:19:38;;;;;;;14.48;8.18;;;;;;;27.30;38.31;101586.81;5054219;28;20120;-60
2021/06/25 07:22:04;;;;;;;11.23;7.45;;;;;;;27.31;38.54;101588.50;5053516;28;20500;-60
2021/06/25 07:24:29;;;;;;;13.82;7.18;;;;;;;27.27;37.87;101576.25;5053945;28;20102;-60
2021/06/25 07:26:55;;;;;;;11.32;7.82;;;;;;;27.43;38.12;101593.13;5053671;28;20477;-60
2021/06/25 07:29:20;;;;;;;19.42;7.88;;;;;;;27.60;37.84;101585.19;5053900;28;20036;-60
2021/06/25 07:31:46;;;;;;;16.60;7.88;;;;;;;28.00;37.44;101586.53;5053658;28;20478;-60
2021/06/25 07:34:12;;;;;;;14.35;8.05;;;;;;;28.41;36.42;101590.66;5053856;28;20508;-60
2021/06/25 07:36:37;;;;;;;11.57;6.93;;;;;;;28.80;36.25;101579.22;5054107;28;20481;-61
2021/06/25 07:39:03;;;;;;;10.63;6.95;;;;;;;29.13;36.06;101582.38;5035691;28;20029;-60
2021/06/25 07:41:28;;;;;;;9.05;5.95;;;;;;;29.30;35.38;101586.22;5054151;28;20111;-61
2021/06/25 07:43:53;;;;;;;10.13;6.90;;;;;;;29.53;35.70;101579.09;5053979;28;20033;-60
2021/06/25 07:46:19;;;;;;;13.38;6.70;;;;;;;29.77;34.84;101580.81;5053307;28;20029;-60
2021/06/25 07:48:44;;;;;;;12.73;6.13;;;;;;;30.01;34.78;101577.06;5053543;28;20025;-61
2021/06/25 07:51:09;;;;;;;18.88;6.63;;;;;;;30.16;35.11;101577.41;5053337;28;20482;-60
2021/06/25 07:53:35;;;;;;;12.60;6.50;;;;;;;30.27;34.81;101570.19;5052595;28;20039;-61
2021/06/25 07:56:00;;;;;;;9.90;5.97;;;;;;;30.24;34.36;101565.16;5053519;28;20048;-61
2021/06/25 07:58:26;;;;;;;10.45;6.20;;;;;;;30.24;34.61;101571.53;5035775;28;20450;-60
2021/06/25 08:00:51;;;;;;;11.30;6.30;;;;;;;30.34;33.93;101577.31;5053191;28;20056;-61
2021/06/25 08:03:16;;;;;;;10.07;5.20;;;;;;;30.51;34.09;101575.50;5053432;28;20078;-60
2021/06/25 08:05:42;;;;;;;7.45;5.07;;;;;;;30.61;33.26;101582.34;5053568;28;20025;-60
2021/06/25 08:08:07;;;;;;;8.90;4.82;;;;;;;30.61;33.56;101577.66;5053830;28;20025;-61
2021/06/25 08:10:33;;;;;;;7.57;4.85;;;;;;;30.63;33.56;101575.50;5053392;28;20078;-60
2021/06/25 08:12:59;;;;;;;6.78;5.10;;;;;;;30.58;33.35;101573.47;5052219;28;20024;-60
2021/06/25 08:15:24;;;;;;;7.78;5.13;;;;;;;30.52;33.45;101574.44;5053636;28;20062;-60
2021/06/25 08:17:49;;;;;;;7.30;4.60;;;;;;;30.49;33.56;101563.00;5053385;28;20024;-60
2021/06/25 08:20:15;;;;;;;7.18;4.40;;;;;;;30.47;33.09;101560.50;5053330;28;20033;-60
2021/06/25 08:22:40;;;;;;;7.05;4.40;;;;;;;30.45;32.64;101562.66;5053034;28;20060;-60
2021/06/25 08:25:06;;;;;;;8.43;4.07;;;;;;;30.45;33.14;101564.59;5051830;28;20033;-61
2021/06/25 08:27:31;;;;;;;8.02;4.78;;;;;;;30.46;32.64;101563.47;5053225;28;20033;-60
2021/06/25 08:29:57;;;;;;;6.47;4.72;;;;;;;30.45;32.78;101565.44;5053259;28;20032;-60
2021/06/25 08:32:22;;;;;;;5.18;3.80;;;;;;;30.53;32.33;101564.22;5052919;28;20536;-61
2021/06/25 08:34:48;;;;;;;11.15;4.65;;;;;;;30.74;32.29;101559.97;5052951;28;20163;-61
2021/06/25 08:37:13;;;;;;;10.30;4.60;;;;;;;31.00;31.93;101559.44;5035090;28;20032;-61
2021/06/25 08:39:39;;;;;;;6.60;3.67;;;;;;;31.14;31.76;101560.81;5053139;28;20044;-61
2021/06/25 08:42:06;;;;;;;7.10;4.78;;;;;;;31.45;31.33;101552.00;5053128;28;20025;-61
2021/06/25 08:44:38;;;;;;;6.40;3.90;;;;;;;31.71;30.76;101543.06;5052827;28;20029;-61
2021/06/25 08:47:05;;;;;;;6.50;4.22;;;;;;;32.00;31.04;101542.97;5053016;28;20039;-61
2021/06/25 08:49:33;;;;;;;5.35;3.60;;;;;;;32.19;30.71;101548.03;5051677;28;20036;-61
2021/06/25 08:51:59;;;;;;;5.30;4.18;;;;;;;32.30;30.26;101551.81;5052758;28;20071;-61
2021/06/25 08:54:24;;;;;;;8.90;4.57;;;;;;;32.43;30.05;101554.22;5052725;28;20043;-60
2021/06/25 08:56:50;;;;;;;6.80;4.70;;;;;;;32.52;29.57;101558.22;5052636;28;20037;-61
2021/06/25 08:59:19;;;;;;;7.30;4.43;;;;;;;32.62;30.37;101557.53;5052884;28;20035;-61
2021/06/25 09:01:49;;;;;;;6.18;3.55;;;;;;;32.69;29.10;101550.69;5053249;28;20107;-60
2021/06/25 09:04:36;;;;;;;5.85;4.78;;;;;;;32.60;29.85;101555.03;5053012;28;20536;-61
2021/06/25 09:07:03;;;;;;;5.82;4.60;;;;;;;32.68;29.52;101551.81;5056314;28;20035;-61
2021/06/25 09:09:40;;;;;;;7.60;4.65;;;;;;;32.75;28.70;101552.44;5056492;28;20029;-61
2021/06/25 09:12:10;;;;;;;9.10;4.60;;;;;;;32.87;29.77;101549.53;5057233;28;20044;-60
2021/06/25 09:15:15;;;;;;;6.53;4.53;;;;;;;32.88;29.29;101544.84;5056370;28;20377;-61
2021/06/25 09:17:58;;;;;;;5.72;4.20;;;;;;;32.96;29.10;101536.03;5014313;28;20037;-61
2021/06/25 09:20:46;;;;;;;9.45;5.18;;;;;;;33.10;29.48;101542.91;5014537;28;20026;-61
2021/06/25 09:23:21;;;;;;;6.82;4.38;;;;;;;33.24;29.14;101533.91;4997835;28;20049;-61
2021/06/25 09:25:49;;;;;;;11.20;4.53;;;;;;;33.44;28.67;101533.25;5014568;28;20030;-61
2021/06/25 09:28:35;;;;;;;9.27;4.63;;;;;;;33.40;28.46;101527.38;4997674;28;20116;-61
2021/06/25 09:31:01;;;;;;;7.03;4.70;;;;;;;33.50;29.06;101514.69;5014040;28;20053;-61
2021/06/25 09:33:26;;;;;;;7.50;5.28;;;;;;;33.74;28.21;101522.44;5014044;28;20518;-60
2021/06/25 09:35:53;;;;;;;7.28;4.40;;;;;;;33.73;28.19;101526.31;5014061;28;20129;-61
2021/06/25 09:38:37;;;;;;;9.23;5.07;;;;;;;33.67;29.03;101524.59;5014479;28;20145;-61
2021/06/25 09:41:16;;;;;;;6.43;4.80;;;;;;;33.69;28.68;101519.63;5014217;28;20034;-61
2021/06/25 09:43:52;;;;;;;5.32;4.55;;;;;;;33.67;28.88;101519.03;5013821;28;20025;-60
2021/06/25 09:46:24;;;;;;;6.85;4.25;;;;;;;33.74;29.14;101504.91;5013653;28;20034;-61
2021/06/25 09:49:04;;;;;;;7.13;5.43;;;;;;;33.85;28.09;101523.34;5028631;28;20394;-61
2021/06/25 09:51:30;;;;;;;11.05;5.28;;;;;;;33.99;28.96;101519.00;5035751;28;20029;-61
2021/06/25 09:54:09;;;;;;;10.88;4.75;;;;;;;34.06;28.37;101518.78;5035466;28;20029;-61
2021/06/25 09:56:40;;;;;;;7.28;5.65;;;;;;;34.07;28.28;101517.66;5035304;28;20025;-60
2021/06/25 10:02:31;;;;;;;8.80;5.60;;;;;;;33.98;28.21;101520.94;4974668;28;20475;-61
2021/06/25 10:05:15;;;;;;;9.70;6.60;;;;;;;34.04;28.83;101516.25;4959045;28;20097;-62
2021/06/25 10:07:41;;;;;;;7.05;6.28;;;;;;;34.42;27.98;101517.91;4958172;28;20046;-62
2021/06/25 10:10:10;;;;;;;25.50;23.83;;;;;;;34.52;28.70;101515.16;4974969;28;20047;-62
2021/06/25 10:12:37;;;;;;;211.13;200.80;;;;;;;34.99;28.19;101518.72;4974549;28;20035;-61
2021/06/25 10:15:04;;;;;;;11.00;6.85;;;;;;;35.85;26.93;101515.25;4974652;28;20094;-59
2021/06/25 10:17:29;;;;;;;8.10;5.28;;;;;;;36.53;26.80;101496.97;4957524;28;20043;-58
2021/06/25 10:20:03;;;;;;;10.48;5.80;;;;;;;37.77;25.89;101507.69;4957987;28;20030;-62
2021/06/25 10:22:28;;;;;;;11.32;6.72;;;;;;;38.15;25.38;101510.66;4973888;28;20054;-61
2021/06/25 10:24:54;;;;;;;12.18;5.93;;;;;;;37.86;25.47;101496.66;4974343;28;20035;-58
2021/06/25 10:27:22;;;;;;;8.25;5.45;;;;;;;37.73;25.45;101506.59;4958067;28;20088;-58
2021/06/25 10:29:48;;;;;;;8.98;5.35;;;;;;;37.37;26.02;101502.38;4974558;28;20051;-59
2021/06/25 10:32:16;;;;;;;8.05;5.97;;;;;;;37.35;25.69;101510.25;4973924;28;20101;-59
2021/06/25 10:34:43;;;;;;;10.90;6.78;;;;;;;37.45;25.95;101501.78;4973792;28;20114;-59
2021/06/25 10:37:12;;;;;;;9.98;6.03;;;;;;;37.69;25.30;101496.28;5021966;28;20033;-59
2021/06/25 10:39:37;;;;;;;5.60;4.82;;;;;;;37.42;26.38;101499.56;5016941;28;20021;-58
2021/06/25 10:42:09;;;;;;;7.75;6.53;;;;;;;37.11;26.32;101501.72;5034662;28;20489;-59
2021/06/25 10:44:44;;;;;;;7.13;6.27;;;;;;;37.69;25.13;101497.09;5017358;28;20025;-60
2021/06/25 10:47:26;;;;;;;8.27;5.38;;;;;;;38.18;25.56;101488.53;5034555;28;20032;-59
2021/06/25 10:50:01;;;;;;;;;;;;;;;38.65;25.88;101498.06;5034785;28;20041;-59
2021/06/25 10:52:37;;;;;;;12.13;4.72;;;;;;;37.92;25.46;101503.06;5034347;28;20011;-59
2021/06/25 10:55:13;;;;;;;7.75;5.72;;;;;;;38.09;25.89;101489.47;5016718;28;20474;-59
2021/06/25 10:57:51;;;;;;;7.25;4.85;;;;;;;37.77;25.38;101498.44;5034535;28;20033;-59
2021/06/25 11:00:25;;;;;;;6.63;4.70;;;;;;;37.80;25.22;101503.44;5034726;28;20423;-59
2021/06/25 11:02:51;;;;;;;9.48;5.60;;;;;;;37.51;25.54;101491.41;5034357;28;20021;-58
2021/06/25 11:05:26;;;;;;;7.70;4.93;;;;;;;36.96;26.04;101499.03;5034625;28;20080;-59
2021/06/25 11:08:20;;;;;;;8.95;4.97;;;;;;;36.67;26.33;101495.25;5034166;28;20108;-58
2021/06/25 11:10:49;;;;;;;8.18;5.70;;;;;;;36.61;26.39;101490.78;5016634;28;20466;-59
2021/06/25 11:13:16;;;;;;;7.78;4.80;;;;;;;36.96;26.25;101493.44;5033945;28;20401;-59
2021/06/25 11:15:46;;;;;;;5.65;4.72;;;;;;;36.53;25.86;101477.44;5033911;28;20024;-59
2021/06/25 11:18:26;;;;;;;7.63;4.38;;;;;;;36.06;26.47;101483.44;5034176;28;20022;-59
2021/06/25 11:20:54;;;;;;;6.07;4.47;;;;;;;36.93;25.61;101496.78;5034164;28;20087;-59
2021/06/25 11:23:26;;;;;;;9.13;5.43;;;;;;;37.52;25.21;101482.72;5045073;28;20045;-59
2021/06/25 11:25:52;;;;;;;;;;;;;;;38.13;25.95;101487.75;5054821;28;20024;-59
2021/06/25 11:28:30;;;;;;;12.18;4.85;;;;;;;38.57;25.11;101487.50;5053061;28;19909;-59
2021/06/25 11:31:19;;;;;;;6.45;4.70;;;;;;;38.83;24.12;101494.50;5053923;28;20025;-59